Akron, New York
Current Conditions -  °F | °C
As of 6:54 PM on Monday 24 Nov 2014 (Local Time) from KBUF Reporting Station
Scattered Clouds Scattered Clouds  
Wind Chill:   Ceiling: Unl
Heat Index:   Visibility: 10mi
Dew Point:   Wind: 22mph
Humidity: 73%   Direction: 240°WSW
Pressure: 29.53"   Gusts: 44mph
Location:  43.02°N, 78.5°W
Report Text: KBUF 242354Z 24019G38KT 10SM FEW011 FEW025 SCT055 08/03 A2953 RMK AO2 PK WND 23038/2346 SLP001 60007 T00780033 10183 20078 53066 $
Loading
Personal Weather Stations






























Interactive Weather Map New forecast layout! Learn more

10-Day Weather Forecast

Advertisements
Track Severe Weather on mobile